sensor_id;sensor_type;location;lat;lon;timestamp;temperature;humidity
23053;DHT22;11694;-36.632;-64.318;2022-12-07T00:01:07;26.40;99.90
23053;DHT22;11694;-36.632;-64.318;2022-12-07T00:03:36;26.30;99.90
23053;DHT22;11694;-36.632;-64.318;2022-12-07T00:06:04;26.30;99.90
23053;DHT22;11694;-36.632;-64.318;2022-12-07T00:08:33;26.20;99.90
23053;DHT22;11694;-36.632;-64.318;2022-12-07T00:11:05;26.10;99.90
23053;DHT22;11694;-36.632;-64.318;2022-12-07T00:13:36;26.10;99.90
23053;DHT22;11694;-36.632;-64.318;2022-12-07T00:16:12;26.10;99.90
23053;DHT22;11694;-36.632;-64.318;2022-12-07T00:18:40;26.10;99.90
23053;DHT22;11694;-36.632;-64.318;2022-12-07T00:21:14;26.00;99.90
23053;DHT22;11694;-36.632;-64.318;2022-12-07T00:23:43;25.90;99.90
23053;DHT22;11694;-36.632;-64.318;2022-12-07T00:26:14;25.80;99.90
23053;DHT22;11694;-36.632;-64.318;2022-12-07T00:28:52;25.70;99.90
23053;DHT22;11694;-36.632;-64.318;2022-12-07T00:31:21;25.60;99.90
23053;DHT22;11694;-36.632;-64.318;2022-12-07T00:33:48;25.50;99.90
23053;DHT22;11694;-36.632;-64.318;2022-12-07T00:36:18;25.30;99.90
23053;DHT22;11694;-36.632;-64.318;2022-12-07T00:38:46;25.20;99.90
23053;DHT22;11694;-36.632;-64.318;2022-12-07T00:41:32;25.30;99.90
23053;DHT22;11694;-36.632;-64.318;2022-12-07T00:43:59;25.20;99.90
23053;DHT22;11694;-36.632;-64.318;2022-12-07T00:46:26;25.10;99.90
23053;DHT22;11694;-36.632;-64.318;2022-12-07T00:48:54;24.90;99.90
23053;DHT22;11694;-36.632;-64.318;2022-12-07T00:51:23;25.00;99.90
23053;DHT22;11694;-36.632;-64.318;2022-12-07T00:53:51;25.00;99.90
23053;DHT22;11694;-36.632;-64.318;2022-12-07T00:56:22;24.90;99.90
23053;DHT22;11694;-36.632;-64.318;2022-12-07T00:58:52;24.80;99.90
23053;DHT22;11694;-36.632;-64.318;2022-12-07T01:01:19;24.70;99.90
23053;DHT22;11694;-36.632;-64.318;2022-12-07T01:03:47;24.70;99.90
23053;DHT22;11694;-36.632;-64.318;2022-12-07T01:06:18;24.70;99.90
23053;DHT22;11694;-36.632;-64.318;2022-12-07T01:08:46;24.60;99.90
23053;DHT22;11694;-36.632;-64.318;2022-12-07T01:11:16;24.50;99.90
23053;DHT22;11694;-36.632;-64.318;2022-12-07T01:13:44;24.40;99.90
23053;DHT22;11694;-36.632;-64.318;2022-12-07T01:16:14;24.40;99.90
23053;DHT22;11694;-36.632;-64.318;2022-12-07T01:18:42;24.50;99.90
23053;DHT22;11694;-36.632;-64.318;2022-12-07T01:21:24;24.40;99.90
23053;DHT22;11694;-36.632;-64.318;2022-12-07T01:23:51;24.40;99.90
23053;DHT22;11694;-36.632;-64.318;2022-12-07T01:26:21;24.40;99.90
23053;DHT22;11694;-36.632;-64.318;2022-12-07T01:28:48;24.30;99.90
23053;DHT22;11694;-36.632;-64.318;2022-12-07T01:31:18;24.20;99.90
23053;DHT22;11694;-36.632;-64.318;2022-12-07T01:33:47;24.20;99.90
23053;DHT22;11694;-36.632;-64.318;2022-12-07T01:36:21;24.20;99.90
23053;DHT22;11694;-36.632;-64.318;2022-12-07T01:38:49;24.10;99.90
23053;DHT22;11694;-36.632;-64.318;2022-12-07T01:41:20;24.10;99.90
23053;DHT22;11694;-36.632;-64.318;2022-12-07T01:46:47;24.10;99.90
23053;DHT22;11694;-36.632;-64.318;2022-12-07T01:52:24;24.10;99.90
23053;DHT22;11694;-36.632;-64.318;2022-12-07T01:54:57;24.20;99.90
23053;DHT22;11694;-36.632;-64.318;2022-12-07T01:57:24;24.20;99.90
23053;DHT22;11694;-36.632;-64.318;2022-12-07T01:59:53;24.10;99.90
23053;DHT22;11694;-36.632;-64.318;2022-12-07T02:02:50;24.00;99.90
23053;DHT22;11694;-36.632;-64.318;2022-12-07T02:05:19;23.90;99.90
23053;DHT22;11694;-36.632;-64.318;2022-12-07T02:07:48;23.90;99.90
23053;DHT22;11694;-36.632;-64.318;2022-12-07T02:10:27;23.90;99.90
23053;DHT22;11694;-36.632;-64.318;2022-12-07T02:13:13;24.00;99.90
23053;DHT22;11694;-36.632;-64.318;2022-12-07T02:24:04;24.20;99.90
23053;DHT22;11694;-36.632;-64.318;2022-12-07T02:35:44;24.10;99.90
23053;DHT22;11694;-36.632;-64.318;2022-12-07T02:38:18;24.00;99.90
23053;DHT22;11694;-36.632;-64.318;2022-12-07T02:43:47;23.80;99.90
23053;DHT22;11694;-36.632;-64.318;2022-12-07T02:46:39;23.80;99.90
23053;DHT22;11694;-36.632;-64.318;2022-12-07T02:49:08;23.90;99.90
23053;DHT22;11694;-36.632;-64.318;2022-12-07T02:51:43;23.80;99.90
23053;DHT22;11694;-36.632;-64.318;2022-12-07T02:54:19;23.80;99.90
23053;DHT22;11694;-36.632;-64.318;2022-12-07T02:56:57;23.80;99.90
23053;DHT22;11694;-36.632;-64.318;2022-12-07T03:16:14;23.40;99.90
23053;DHT22;11694;-36.632;-64.318;2022-12-07T03:18:59;23.40;99.90
23053;DHT22;11694;-36.632;-64.318;2022-12-07T03:21:40;23.40;99.90
23053;DHT22;11694;-36.632;-64.318;2022-12-07T03:24:37;23.40;99.90
23053;DHT22;11694;-36.632;-64.318;2022-12-07T03:27:06;23.40;99.90
23053;DHT22;11694;-36.632;-64.318;2022-12-07T03:29:46;23.40;99.90
23053;DHT22;11694;-36.632;-64.318;2022-12-07T03:35:14;23.40;99.90
23053;DHT22;11694;-36.632;-64.318;2022-12-07T03:37:57;23.30;99.90
23053;DHT22;11694;-36.632;-64.318;2022-12-07T03:40:45;23.30;99.90
23053;DHT22;11694;-36.632;-64.318;2022-12-07T03:43:15;23.30;99.90
23053;DHT22;11694;-36.632;-64.318;2022-12-07T03:45:48;23.30;99.90
23053;DHT22;11694;-36.632;-64.318;2022-12-07T03:49:17;23.30;99.90
23053;DHT22;11694;-36.632;-64.318;2022-12-07T03:54:02;23.20;99.90
23053;DHT22;11694;-36.632;-64.318;2022-12-07T03:56:32;23.20;99.90
23053;DHT22;11694;-36.632;-64.318;2022-12-07T03:59:00;23.10;99.90
23053;DHT22;11694;-36.632;-64.318;2022-12-07T04:01:28;23.10;99.90
23053;DHT22;11694;-36.632;-64.318;2022-12-07T04:03:55;23.10;99.90
23053;DHT22;11694;-36.632;-64.318;2022-12-07T04:06:22;23.00;99.90
23053;DHT22;11694;-36.632;-64.318;2022-12-07T04:08:49;23.00;99.90
23053;DHT22;11694;-36.632;-64.318;2022-12-07T04:11:19;23.00;99.90
23053;DHT22;11694;-36.632;-64.318;2022-12-07T04:13:47;23.00;99.90
23053;DHT22;11694;-36.632;-64.318;2022-12-07T04:16:32;22.90;99.90
23053;DHT22;11694;-36.632;-64.318;2022-12-07T04:19:02;22.80;99.90
23053;DHT22;11694;-36.632;-64.318;2022-12-07T04:21:29;22.80;99.90
23053;DHT22;11694;-36.632;-64.318;2022-12-07T04:23:56;22.70;99.90
23053;DHT22;11694;-36.632;-64.318;2022-12-07T04:26:23;22.70;99.90
23053;DHT22;11694;-36.632;-64.318;2022-12-07T04:28:51;22.60;99.90
23053;DHT22;11694;-36.632;-64.318;2022-12-07T04:31:21;22.60;99.90
23053;DHT22;11694;-36.632;-64.318;2022-12-07T04:33:48;22.50;99.90
23053;DHT22;11694;-36.632;-64.318;2022-12-07T04:36:18;22.40;99.90
23053;DHT22;11694;-36.632;-64.318;2022-12-07T04:38:47;22.30;1.00
23053;DHT22;11694;-36.632;-64.318;2022-12-07T04:41:14;22.20;1.00
23053;DHT22;11694;-36.632;-64.318;2022-12-07T04:43:41;22.20;1.00
23053;DHT22;11694;-36.632;-64.318;2022-12-07T04:46:08;22.20;99.90
23053;DHT22;11694;-36.632;-64.318;2022-12-07T04:48:36;22.20;99.90
23053;DHT22;11694;-36.632;-64.318;2022-12-07T04:51:04;22.20;99.90
23053;DHT22;11694;-36.632;-64.318;2022-12-07T04:53:31;22.20;99.90
23053;DHT22;11694;-36.632;-64.318;2022-12-07T04:56:01;22.10;99.90
23053;DHT22;11694;-36.632;-64.318;2022-12-07T04:58:29;22.00;99.90
23053;DHT22;11694;-36.632;-64.318;2022-12-07T05:00:56;21.90;1.00
23053;DHT22;11694;-36.632;-64.318;2022-12-07T05:03:23;21.80;99.90
23053;DHT22;11694;-36.632;-64.318;2022-12-07T05:05:50;21.70;1.00
23053;DHT22;11694;-36.632;-64.318;2022-12-07T05:08:18;21.70;99.90
23053;DHT22;11694;-36.632;-64.318;2022-12-07T05:10:45;21.70;99.90
23053;DHT22;11694;-36.632;-64.318;2022-12-07T05:13:12;21.60;1.00
23053;DHT22;11694;-36.632;-64.318;2022-12-07T05:15:39;21.50;1.00
23053;DHT22;11694;-36.632;-64.318;2022-12-07T05:18:06;21.50;1.00
23053;DHT22;11694;-36.632;-64.318;2022-12-07T05:20:33;21.30;1.00
23053;DHT22;11694;-36.632;-64.318;2022-12-07T05:23:00;21.30;1.00
23053;DHT22;11694;-36.632;-64.318;2022-12-07T05:25:27;21.20;1.00
23053;DHT22;11694;-36.632;-64.318;2022-12-07T05:27:55;21.20;1.00
23053;DHT22;11694;-36.632;-64.318;2022-12-07T05:30:24;21.20;1.00
23053;DHT22;11694;-36.632;-64.318;2022-12-07T05:32:51;21.10;1.00
23053;DHT22;11694;-36.632;-64.318;2022-12-07T05:35:20;21.10;1.00
23053;DHT22;11694;-36.632;-64.318;2022-12-07T05:37:47;21.10;1.00
23053;DHT22;11694;-36.632;-64.318;2022-12-07T05:40:15;21.00;1.00
23053;DHT22;11694;-36.632;-64.318;2022-12-07T05:42:42;20.90;1.00
23053;DHT22;11694;-36.632;-64.318;2022-12-07T05:45:10;20.90;1.00
23053;DHT22;11694;-36.632;-64.318;2022-12-07T05:47:37;20.90;1.00
23053;DHT22;11694;-36.632;-64.318;2022-12-07T05:50:05;20.80;1.00
23053;DHT22;11694;-36.632;-64.318;2022-12-07T05:52:33;20.70;1.00
23053;DHT22;11694;-36.632;-64.318;2022-12-07T05:55:00;20.60;1.00
23053;DHT22;11694;-36.632;-64.318;2022-12-07T05:57:27;20.60;1.00
23053;DHT22;11694;-36.632;-64.318;2022-12-07T05:59:54;20.50;1.00
23053;DHT22;11694;-36.632;-64.318;2022-12-07T06:02:21;20.40;1.00
23053;DHT22;11694;-36.632;-64.318;2022-12-07T06:04:48;20.40;1.00
23053;DHT22;11694;-36.632;-64.318;2022-12-07T06:07:17;20.40;1.00
23053;DHT22;11694;-36.632;-64.318;2022-12-07T06:09:44;20.50;1.00
23053;DHT22;11694;-36.632;-64.318;2022-12-07T06:12:12;20.50;1.00
23053;DHT22;11694;-36.632;-64.318;2022-12-07T06:14:58;20.40;1.00
23053;DHT22;11694;-36.632;-64.318;2022-12-07T06:17:25;20.40;1.00
23053;DHT22;11694;-36.632;-64.318;2022-12-07T06:19:52;20.40;1.00
23053;DHT22;11694;-36.632;-64.318;2022-12-07T06:22:19;20.40;1.00
23053;DHT22;11694;-36.632;-64.318;2022-12-07T06:24:46;20.30;1.00
23053;DHT22;11694;-36.632;-64.318;2022-12-07T06:27:13;20.20;1.00
23053;DHT22;11694;-36.632;-64.318;2022-12-07T06:29:41;20.20;1.00
23053;DHT22;11694;-36.632;-64.318;2022-12-07T06:32:08;20.20;1.00
23053;DHT22;11694;-36.632;-64.318;2022-12-07T06:34:35;20.20;1.00
23053;DHT22;11694;-36.632;-64.318;2022-12-07T06:37:02;20.10;1.00
23053;DHT22;11694;-36.632;-64.318;2022-12-07T06:39:30;20.20;1.00
23053;DHT22;11694;-36.632;-64.318;2022-12-07T06:41:58;20.20;1.00
23053;DHT22;11694;-36.632;-64.318;2022-12-07T06:44:25;20.20;1.00
23053;DHT22;11694;-36.632;-64.318;2022-12-07T06:46:52;20.10;1.00
23053;DHT22;11694;-36.632;-64.318;2022-12-07T06:49:20;20.20;1.00
23053;DHT22;11694;-36.632;-64.318;2022-12-07T06:51:47;20.20;1.00
23053;DHT22;11694;-36.632;-64.318;2022-12-07T06:54:15;20.20;1.00
23053;DHT22;11694;-36.632;-64.318;2022-12-07T06:56:42;20.20;1.00
23053;DHT22;11694;-36.632;-64.318;2022-12-07T06:59:10;20.20;1.00
23053;DHT22;11694;-36.632;-64.318;2022-12-07T07:01:37;20.20;1.00
23053;DHT22;11694;-36.632;-64.318;2022-12-07T07:04:05;20.10;1.00
23053;DHT22;11694;-36.632;-64.318;2022-12-07T07:06:32;20.10;1.00
23053;DHT22;11694;-36.632;-64.318;2022-12-07T07:08:59;20.10;1.00
23053;DHT22;11694;-36.632;-64.318;2022-12-07T07:11:26;20.10;1.00
23053;DHT22;11694;-36.632;-64.318;2022-12-07T07:13:53;20.00;1.00
23053;DHT22;11694;-36.632;-64.318;2022-12-07T07:16:23;20.00;1.00
23053;DHT22;11694;-36.632;-64.318;2022-12-07T07:18:51;20.00;1.00
23053;DHT22;11694;-36.632;-64.318;2022-12-07T07:21:18;19.90;1.00
23053;DHT22;11694;-36.632;-64.318;2022-12-07T07:23:45;19.90;1.00
23053;DHT22;11694;-36.632;-64.318;2022-12-07T07:26:12;19.80;1.00
23053;DHT22;11694;-36.632;-64.318;2022-12-07T07:28:39;19.70;1.00
23053;DHT22;11694;-36.632;-64.318;2022-12-07T07:31:06;19.70;1.00
23053;DHT22;11694;-36.632;-64.318;2022-12-07T07:33:33;19.70;1.00
23053;DHT22;11694;-36.632;-64.318;2022-12-07T07:36:01;19.70;1.00
23053;DHT22;11694;-36.632;-64.318;2022-12-07T07:38:28;19.70;1.00
23053;DHT22;11694;-36.632;-64.318;2022-12-07T07:40:55;19.70;1.00
23053;DHT22;11694;-36.632;-64.318;2022-12-07T07:43:22;19.60;1.00
23053;DHT22;11694;-36.632;-64.318;2022-12-07T07:45:53;19.60;1.00
23053;DHT22;11694;-36.632;-64.318;2022-12-07T07:48:20;19.50;1.00
23053;DHT22;11694;-36.632;-64.318;2022-12-07T07:50:50;19.50;1.00
23053;DHT22;11694;-36.632;-64.318;2022-12-07T07:53:17;19.40;1.00
23053;DHT22;11694;-36.632;-64.318;2022-12-07T07:55:52;19.40;1.00
23053;DHT22;11694;-36.632;-64.318;2022-12-07T07:58:20;19.40;1.00
23053;DHT22;11694;-36.632;-64.318;2022-12-07T08:00:47;19.50;1.00
23053;DHT22;11694;-36.632;-64.318;2022-12-07T08:03:14;19.40;1.00
23053;DHT22;11694;-36.632;-64.318;2022-12-07T08:05:45;19.40;1.00
23053;DHT22;11694;-36.632;-64.318;2022-12-07T08:08:12;19.30;1.00
23053;DHT22;11694;-36.632;-64.318;2022-12-07T08:10:39;19.30;1.00
23053;DHT22;11694;-36.632;-64.318;2022-12-07T08:13:06;19.30;1.00
23053;DHT22;11694;-36.632;-64.318;2022-12-07T08:15:47;19.20;1.00
23053;DHT22;11694;-36.632;-64.318;2022-12-07T08:18:15;19.20;2.90
23053;DHT22;11694;-36.632;-64.318;2022-12-07T08:20:43;19.20;1.00
23053;DHT22;11694;-36.632;-64.318;2022-12-07T08:23:10;19.10;2.00
23053;DHT22;11694;-36.632;-64.318;2022-12-07T08:25:38;19.10;3.10
23053;DHT22;11694;-36.632;-64.318;2022-12-07T08:28:06;19.00;3.50
23053;DHT22;11694;-36.632;-64.318;2022-12-07T08:30:34;18.90;7.70
23053;DHT22;11694;-36.632;-64.318;2022-12-07T08:33:01;18.90;6.50
23053;DHT22;11694;-36.632;-64.318;2022-12-07T08:35:28;18.90;6.60
23053;DHT22;11694;-36.632;-64.318;2022-12-07T08:37:55;18.90;10.20
23053;DHT22;11694;-36.632;-64.318;2022-12-07T08:40:24;18.90;10.10
23053;DHT22;11694;-36.632;-64.318;2022-12-07T08:42:51;18.90;12.00
23053;DHT22;11694;-36.632;-64.318;2022-12-07T08:45:20;18.90;10.10
23053;DHT22;11694;-36.632;-64.318;2022-12-07T08:48:05;18.90;12.60
23053;DHT22;11694;-36.632;-64.318;2022-12-07T08:50:34;18.90;15.90
23053;DHT22;11694;-36.632;-64.318;2022-12-07T08:53:03;18.90;10.80
23053;DHT22;11694;-36.632;-64.318;2022-12-07T08:55:31;18.90;11.90
23053;DHT22;11694;-36.632;-64.318;2022-12-07T08:58:01;19.00;8.50
23053;DHT22;11694;-36.632;-64.318;2022-12-07T09:00:29;19.10;10.20
23053;DHT22;11694;-36.632;-64.318;2022-12-07T09:02:56;19.10;4.40
23053;DHT22;11694;-36.632;-64.318;2022-12-07T09:05:23;19.20;5.10
23053;DHT22;11694;-36.632;-64.318;2022-12-07T09:07:52;19.20;2.40
23053;DHT22;11694;-36.632;-64.318;2022-12-07T09:10:21;19.20;4.30
23053;DHT22;11694;-36.632;-64.318;2022-12-07T09:12:49;19.20;3.30
23053;DHT22;11694;-36.632;-64.318;2022-12-07T09:15:16;19.30;6.40
23053;DHT22;11694;-36.632;-64.318;2022-12-07T09:17:44;19.20;6.00
23053;DHT22;11694;-36.632;-64.318;2022-12-07T09:20:12;19.20;8.20
23053;DHT22;11694;-36.632;-64.318;2022-12-07T09:22:39;19.20;12.40
23053;DHT22;11694;-36.632;-64.318;2022-12-07T09:25:06;19.20;9.40
23053;DHT22;11694;-36.632;-64.318;2022-12-07T09:27:34;19.20;9.40
23053;DHT22;11694;-36.632;-64.318;2022-12-07T09:30:01;19.20;8.60
23053;DHT22;11694;-36.632;-64.318;2022-12-07T09:32:28;19.20;11.40
23053;DHT22;11694;-36.632;-64.318;2022-12-07T09:34:55;19.20;14.80
23053;DHT22;11694;-36.632;-64.318;2022-12-07T09:37:22;19.30;11.80
23053;DHT22;11694;-36.632;-64.318;2022-12-07T09:39:49;19.40;14.10
23053;DHT22;11694;-36.632;-64.318;2022-12-07T09:42:28;19.50;7.90
23053;DHT22;11694;-36.632;-64.318;2022-12-07T09:44:56;19.50;14.30
23053;DHT22;11694;-36.632;-64.318;2022-12-07T09:47:24;19.50;7.60
23053;DHT22;11694;-36.632;-64.318;2022-12-07T09:49:54;19.60;12.00
23053;DHT22;11694;-36.632;-64.318;2022-12-07T09:52:31;19.60;11.60
23053;DHT22;11694;-36.632;-64.318;2022-12-07T09:54:58;19.70;12.50
23053;DHT22;11694;-36.632;-64.318;2022-12-07T09:57:32;19.80;6.50
23053;DHT22;11694;-36.632;-64.318;2022-12-07T10:00:09;20.00;1.00
23053;DHT22;11694;-36.632;-64.318;2022-12-07T10:02:39;20.20;1.00
23053;DHT22;11694;-36.632;-64.318;2022-12-07T10:05:14;20.50;1.00
23053;DHT22;11694;-36.632;-64.318;2022-12-07T10:07:42;20.70;1.00
23053;DHT22;11694;-36.632;-64.318;2022-12-07T10:10:20;21.00;1.00
23053;DHT22;11694;-36.632;-64.318;2022-12-07T10:12:59;21.20;1.00
23053;DHT22;11694;-36.632;-64.318;2022-12-07T10:15:56;21.40;1.00
23053;DHT22;11694;-36.632;-64.318;2022-12-07T10:18:39;21.50;1.00
23053;DHT22;11694;-36.632;-64.318;2022-12-07T10:21:26;21.60;1.00
23053;DHT22;11694;-36.632;-64.318;2022-12-07T10:26:33;22.40;1.00
23053;DHT22;11694;-36.632;-64.318;2022-12-07T10:29:23;22.50;1.00
23053;DHT22;11694;-36.632;-64.318;2022-12-07T10:32:05;22.40;1.00
23053;DHT22;11694;-36.632;-64.318;2022-12-07T10:34:35;22.00;1.00
23053;DHT22;11694;-36.632;-64.318;2022-12-07T10:37:16;21.80;8.40
23053;DHT22;11694;-36.632;-64.318;2022-12-07T10:39:48;22.00;3.00
23053;DHT22;11694;-36.632;-64.318;2022-12-07T10:42:22;22.00;17.10
23053;DHT22;11694;-36.632;-64.318;2022-12-07T10:53:27;22.30;11.80
23053;DHT22;11694;-36.632;-64.318;2022-12-07T11:03:03;22.60;23.70
23053;DHT22;11694;-36.632;-64.318;2022-12-07T11:07:45;22.50;26.20
23053;DHT22;11694;-36.632;-64.318;2022-12-07T11:13:40;22.60;32.60
23053;DHT22;11694;-36.632;-64.318;2022-12-07T11:19:15;22.70;32.20
23053;DHT22;11694;-36.632;-64.318;2022-12-07T11:21:57;22.80;36.00
23053;DHT22;11694;-36.632;-64.318;2022-12-07T11:37:35;24.30;23.20
23053;DHT22;11694;-36.632;-64.318;2022-12-07T11:42:43;24.60;19.40
23053;DHT22;11694;-36.632;-64.318;2022-12-07T11:45:52;24.70;16.90
23053;DHT22;11694;-36.632;-64.318;2022-12-07T11:48:14;25.00;11.90
23053;DHT22;11694;-36.632;-64.318;2022-12-07T11:50:54;25.00;5.10
23053;DHT22;11694;-36.632;-64.318;2022-12-07T11:53:43;25.10;9.20
23053;DHT22;11694;-36.632;-64.318;2022-12-07T11:56:16;25.00;11.00
23053;DHT22;11694;-36.632;-64.318;2022-12-07T11:58:57;25.00;5.10
23053;DHT22;11694;-36.632;-64.318;2022-12-07T12:06:41;25.40;7.70
23053;DHT22;11694;-36.632;-64.318;2022-12-07T12:09:33;25.40;5.50
23053;DHT22;11694;-36.632;-64.318;2022-12-07T12:20:50;25.20;14.20
23053;DHT22;11694;-36.632;-64.318;2022-12-07T12:23:54;25.10;15.70
23053;DHT22;11694;-36.632;-64.318;2022-12-07T12:26:25;25.00;23.10
23053;DHT22;11694;-36.632;-64.318;2022-12-07T12:29:05;25.00;34.40
23053;DHT22;11694;-36.632;-64.318;2022-12-07T12:31:36;24.80;28.70
23053;DHT22;11694;-36.632;-64.318;2022-12-07T12:34:32;24.80;29.40
23053;DHT22;11694;-36.632;-64.318;2022-12-07T12:36:59;24.70;24.90
23053;DHT22;11694;-36.632;-64.318;2022-12-07T12:39:27;24.50;29.30
23053;DHT22;11694;-36.632;-64.318;2022-12-07T12:41:56;24.40;19.60
23053;DHT22;11694;-36.632;-64.318;2022-12-07T12:46:55;24.40;25.20
23053;DHT22;11694;-36.632;-64.318;2022-12-07T12:52:01;24.60;23.20
23053;DHT22;11694;-36.632;-64.318;2022-12-07T12:57:36;25.20;4.20
23053;DHT22;11694;-36.632;-64.318;2022-12-07T13:00:23;25.40;1.00
23053;DHT22;11694;-36.632;-64.318;2022-12-07T13:02:56;25.50;1.00
23053;DHT22;11694;-36.632;-64.318;2022-12-07T13:05:29;25.60;1.00
23053;DHT22;11694;-36.632;-64.318;2022-12-07T13:07:57;25.80;1.00
23053;DHT22;11694;-36.632;-64.318;2022-12-07T13:15:44;27.00;1.00
23053;DHT22;11694;-36.632;-64.318;2022-12-07T13:34:38;29.20;99.90
23053;DHT22;11694;-36.632;-64.318;2022-12-07T13:37:15;29.50;99.90
23053;DHT22;11694;-36.632;-64.318;2022-12-07T13:39:56;29.60;99.90
23053;DHT22;11694;-36.632;-64.318;2022-12-07T13:42:31;29.40;99.90
23053;DHT22;11694;-36.632;-64.318;2022-12-07T13:45:01;29.20;1.00
23053;DHT22;11694;-36.632;-64.318;2022-12-07T13:47:52;30.80;99.90
23053;DHT22;11694;-36.632;-64.318;2022-12-07T13:50:31;32.60;99.90
23053;DHT22;11694;-36.632;-64.318;2022-12-07T13:53:00;33.50;99.90
23053;DHT22;11694;-36.632;-64.318;2022-12-07T13:55:29;34.10;99.90
23053;DHT22;11694;-36.632;-64.318;2022-12-07T13:57:56;34.50;99.90
23053;DHT22;11694;-36.632;-64.318;2022-12-07T14:00:25;34.80;99.90
23053;DHT22;11694;-36.632;-64.318;2022-12-07T14:03:01;35.40;99.90
23053;DHT22;11694;-36.632;-64.318;2022-12-07T14:05:33;35.60;99.90
23053;DHT22;11694;-36.632;-64.318;2022-12-07T14:08:21;35.80;99.90
23053;DHT22;11694;-36.632;-64.318;2022-12-07T14:13:31;34.30;99.90
23053;DHT22;11694;-36.632;-64.318;2022-12-07T14:16:03;34.10;99.90
23053;DHT22;11694;-36.632;-64.318;2022-12-07T14:18:37;33.00;99.90
23053;DHT22;11694;-36.632;-64.318;2022-12-07T14:23:40;32.60;99.90
23053;DHT22;11694;-36.632;-64.318;2022-12-07T14:26:16;33.70;99.90
23053;DHT22;11694;-36.632;-64.318;2022-12-07T14:28:46;34.70;99.90
23053;DHT22;11694;-36.632;-64.318;2022-12-07T14:31:23;35.40;99.90
23053;DHT22;11694;-36.632;-64.318;2022-12-07T14:33:51;36.20;99.90
23053;DHT22;11694;-36.632;-64.318;2022-12-07T14:36:18;36.50;99.90
23053;DHT22;11694;-36.632;-64.318;2022-12-07T14:38:45;36.60;99.90
23053;DHT22;11694;-36.632;-64.318;2022-12-07T14:41:16;36.60;99.90
23053;DHT22;11694;-36.632;-64.318;2022-12-07T14:44:08;36.60;99.90
23053;DHT22;11694;-36.632;-64.318;2022-12-07T14:46:36;37.20;99.90
23053;DHT22;11694;-36.632;-64.318;2022-12-07T14:49:03;37.30;99.90
23053;DHT22;11694;-36.632;-64.318;2022-12-07T14:51:30;37.10;99.90
23053;DHT22;11694;-36.632;-64.318;2022-12-07T14:53:57;37.00;99.90
23053;DHT22;11694;-36.632;-64.318;2022-12-07T14:56:25;36.80;99.90
23053;DHT22;11694;-36.632;-64.318;2022-12-07T14:58:53;36.60;99.90
23053;DHT22;11694;-36.632;-64.318;2022-12-07T15:01:20;36.40;99.90
23053;DHT22;11694;-36.632;-64.318;2022-12-07T15:03:47;36.50;99.90
23053;DHT22;11694;-36.632;-64.318;2022-12-07T15:06:16;36.60;99.90
23053;DHT22;11694;-36.632;-64.318;2022-12-07T15:08:44;36.70;99.90
23053;DHT22;11694;-36.632;-64.318;2022-12-07T15:11:15;37.00;99.90
23053;DHT22;11694;-36.632;-64.318;2022-12-07T15:13:43;37.00;99.90
23053;DHT22;11694;-36.632;-64.318;2022-12-07T15:16:28;36.60;99.90
23053;DHT22;11694;-36.632;-64.318;2022-12-07T15:18:58;36.30;99.90
23053;DHT22;11694;-36.632;-64.318;2022-12-07T15:21:26;36.20;99.90
23053;DHT22;11694;-36.632;-64.318;2022-12-07T15:23:53;36.30;99.90
23053;DHT22;11694;-36.632;-64.318;2022-12-07T15:26:21;36.40;99.90
23053;DHT22;11694;-36.632;-64.318;2022-12-07T15:28:48;36.40;99.90
23053;DHT22;11694;-36.632;-64.318;2022-12-07T15:31:16;36.80;99.90
23053;DHT22;11694;-36.632;-64.318;2022-12-07T15:33:44;36.20;99.90
23053;DHT22;11694;-36.632;-64.318;2022-12-07T15:36:26;35.20;99.90
23053;DHT22;11694;-36.632;-64.318;2022-12-07T15:38:54;35.00;99.90
23053;DHT22;11694;-36.632;-64.318;2022-12-07T15:41:22;35.80;99.90
23053;DHT22;11694;-36.632;-64.318;2022-12-07T15:43:49;36.20;99.90
23053;DHT22;11694;-36.632;-64.318;2022-12-07T15:46:38;36.60;99.90
23053;DHT22;11694;-36.632;-64.318;2022-12-07T15:49:14;36.90;99.90
23053;DHT22;11694;-36.632;-64.318;2022-12-07T15:51:43;37.30;99.90
23053;DHT22;11694;-36.632;-64.318;2022-12-07T15:54:22;37.10;99.90
23053;DHT22;11694;-36.632;-64.318;2022-12-07T15:56:50;37.10;99.90
23053;DHT22;11694;-36.632;-64.318;2022-12-07T15:59:17;37.30;99.90
23053;DHT22;11694;-36.632;-64.318;2022-12-07T16:01:45;37.70;99.90
23053;DHT22;11694;-36.632;-64.318;2022-12-07T16:04:15;37.90;99.90
23053;DHT22;11694;-36.632;-64.318;2022-12-07T16:06:42;38.10;99.90
23053;DHT22;11694;-36.632;-64.318;2022-12-07T16:09:09;37.80;99.90
23053;DHT22;11694;-36.632;-64.318;2022-12-07T16:11:37;37.00;99.90
23053;DHT22;11694;-36.632;-64.318;2022-12-07T16:14:04;36.40;99.90
23053;DHT22;11694;-36.632;-64.318;2022-12-07T16:16:31;36.20;99.90
23053;DHT22;11694;-36.632;-64.318;2022-12-07T16:18:58;36.20;99.90
23053;DHT22;11694;-36.632;-64.318;2022-12-07T16:21:28;35.90;99.90
23053;DHT22;11694;-36.632;-64.318;2022-12-07T16:23:58;35.90;99.90
23053;DHT22;11694;-36.632;-64.318;2022-12-07T16:26:25;36.00;99.90
23053;DHT22;11694;-36.632;-64.318;2022-12-07T16:28:53;36.20;99.90
23053;DHT22;11694;-36.632;-64.318;2022-12-07T16:31:24;35.80;99.90
23053;DHT22;11694;-36.632;-64.318;2022-12-07T16:33:54;35.50;99.90
23053;DHT22;11694;-36.632;-64.318;2022-12-07T16:36:23;35.60;99.90
23053;DHT22;11694;-36.632;-64.318;2022-12-07T16:38:51;36.00;99.90
23053;DHT22;11694;-36.632;-64.318;2022-12-07T16:41:18;36.10;99.90
23053;DHT22;11694;-36.632;-64.318;2022-12-07T16:43:46;35.70;99.90
23053;DHT22;11694;-36.632;-64.318;2022-12-07T16:46:13;35.30;99.90
23053;DHT22;11694;-36.632;-64.318;2022-12-07T16:48:45;35.00;99.90
23053;DHT22;11694;-36.632;-64.318;2022-12-07T16:51:13;34.70;99.90
23053;DHT22;11694;-36.632;-64.318;2022-12-07T16:53:41;34.70;99.90
23053;DHT22;11694;-36.632;-64.318;2022-12-07T16:56:13;35.80;99.90
23053;DHT22;11694;-36.632;-64.318;2022-12-07T16:58:42;36.60;99.90
23053;DHT22;11694;-36.632;-64.318;2022-12-07T17:01:11;37.00;99.90
23053;DHT22;11694;-36.632;-64.318;2022-12-07T17:03:39;37.40;99.90
23053;DHT22;11694;-36.632;-64.318;2022-12-07T17:06:14;37.50;99.90
23053;DHT22;11694;-36.632;-64.318;2022-12-07T17:08:42;37.60;99.90
23053;DHT22;11694;-36.632;-64.318;2022-12-07T17:11:18;37.70;99.90
23053;DHT22;11694;-36.632;-64.318;2022-12-07T17:13:46;37.60;99.90
23053;DHT22;11694;-36.632;-64.318;2022-12-07T17:16:31;37.70;99.90
23053;DHT22;11694;-36.632;-64.318;2022-12-07T17:18:58;37.80;99.90
23053;DHT22;11694;-36.632;-64.318;2022-12-07T17:21:26;38.20;99.90
23053;DHT22;11694;-36.632;-64.318;2022-12-07T17:23:53;38.40;99.90
23053;DHT22;11694;-36.632;-64.318;2022-12-07T17:26:23;38.50;99.90
23053;DHT22;11694;-36.632;-64.318;2022-12-07T17:28:51;38.30;82.30
23053;DHT22;11694;-36.632;-64.318;2022-12-07T17:31:24;38.20;94.00
23053;DHT22;11694;-36.632;-64.318;2022-12-07T17:33:58;38.30;84.70
23053;DHT22;11694;-36.632;-64.318;2022-12-07T17:36:30;38.30;84.40